Terminal Aerodrome Forecast
Issued by NWS Charleston, WV

Current Version | Previous Version | Graphics & Text | Print | Product List | Glossary On
Versions: 1 2 3 4 5 6 7 8 9 10 11 12 13 14 15 16 17 18 19 20 21 22
955
FTUS41 KRLX 281727
TAFCRW
TAF
KCRW 281727Z 2818/2918 24007KT P6SM VCSH BKN030
     FM281900 25010KT 4SM SHRA VCTS BKN030CB
     FM290000 VRB03KT 5SM SHRA BR BKN030
     FM290600 00000KT 3SM BR BKN010
     FM290900 00000KT 2SM BR BKN010
     FM291500 26005KT 5SM HZ BKN025=

USA.gov is the U.S. government's official web portal to all federal, state and local government web resources and services.